sensor_id;sensor_type;location;lat;lon;timestamp;P1;durP1;ratioP1;P2;durP2;ratioP2
71174;SDS011;58876;51.994;4.472;2024-02-16T00:01:01;31.60;;;31.60;;
71174;SDS011;58876;51.994;4.472;2024-02-16T00:03:28;21.36;;;21.36;;
71174;SDS011;58876;51.994;4.472;2024-02-16T00:05:56;23.72;;;23.72;;
71174;SDS011;58876;51.994;4.472;2024-02-16T00:08:22;24.59;;;24.59;;
71174;SDS011;58876;51.994;4.472;2024-02-16T00:10:47;18.00;;;18.00;;
71174;SDS011;58876;51.994;4.472;2024-02-16T00:13:13;17.22;;;17.22;;
71174;SDS011;58876;51.994;4.472;2024-02-16T00:15:39;15.92;;;15.92;;
71174;SDS011;58876;51.994;4.472;2024-02-16T00:18:05;16.38;;;16.38;;
71174;SDS011;58876;51.994;4.472;2024-02-16T00:20:31;16.43;;;16.43;;
71174;SDS011;58876;51.994;4.472;2024-02-16T00:22:57;25.80;;;25.80;;
71174;SDS011;58876;51.994;4.472;2024-02-16T00:25:26;30.27;;;30.27;;
71174;SDS011;58876;51.994;4.472;2024-02-16T00:27:52;28.69;;;28.69;;
71174;SDS011;58876;51.994;4.472;2024-02-16T00:30:18;24.35;;;24.35;;
71174;SDS011;58876;51.994;4.472;2024-02-16T00:32:44;26.30;;;26.30;;
71174;SDS011;58876;51.994;4.472;2024-02-16T00:35:13;26.63;;;26.63;;
71174;SDS011;58876;51.994;4.472;2024-02-16T00:37:41;19.03;;;19.03;;
71174;SDS011;58876;51.994;4.472;2024-02-16T00:40:07;24.42;;;24.42;;
71174;SDS011;58876;51.994;4.472;2024-02-16T00:42:33;26.97;;;26.97;;
71174;SDS011;58876;51.994;4.472;2024-02-16T00:44:59;26.39;;;26.39;;
71174;SDS011;58876;51.994;4.472;2024-02-16T00:47:28;45.98;;;45.98;;
71174;SDS011;58876;51.994;4.472;2024-02-16T00:49:54;44.16;;;44.16;;
71174;SDS011;58876;51.994;4.472;2024-02-16T00:52:20;37.58;;;37.58;;
71174;SDS011;58876;51.994;4.472;2024-02-16T00:54:45;36.46;;;36.46;;
71174;SDS011;58876;51.994;4.472;2024-02-16T00:57:13;40.12;;;40.12;;
71174;SDS011;58876;51.994;4.472;2024-02-16T00:59:39;37.89;;;37.89;;
71174;SDS011;58876;51.994;4.472;2024-02-16T01:02:05;37.31;;;37.31;;
71174;SDS011;58876;51.994;4.472;2024-02-16T01:04:32;30.94;;;30.94;;
71174;SDS011;58876;51.994;4.472;2024-02-16T01:06:58;30.02;;;30.02;;
71174;SDS011;58876;51.994;4.472;2024-02-16T01:09:24;32.04;;;32.04;;
71174;SDS011;58876;51.994;4.472;2024-02-16T01:11:49;35.31;;;35.31;;
71174;SDS011;58876;51.994;4.472;2024-02-16T01:14:15;28.05;;;28.05;;
71174;SDS011;58876;51.994;4.472;2024-02-16T01:16:40;17.65;;;17.65;;
71174;SDS011;58876;51.994;4.472;2024-02-16T01:19:06;23.07;;;23.07;;
71174;SDS011;58876;51.994;4.472;2024-02-16T01:21:32;26.09;;;26.09;;
71174;SDS011;58876;51.994;4.472;2024-02-16T01:23:58;27.29;;;27.29;;
71174;SDS011;58876;51.994;4.472;2024-02-16T01:26:26;22.18;;;22.18;;
71174;SDS011;58876;51.994;4.472;2024-02-16T01:28:54;32.31;;;32.31;;
71174;SDS011;58876;51.994;4.472;2024-02-16T01:31:23;32.21;;;32.21;;
71174;SDS011;58876;51.994;4.472;2024-02-16T01:33:48;28.87;;;28.87;;
71174;SDS011;58876;51.994;4.472;2024-02-16T01:36:14;26.30;;;26.30;;
71174;SDS011;58876;51.994;4.472;2024-02-16T01:38:39;28.31;;;28.31;;
71174;SDS011;58876;51.994;4.472;2024-02-16T01:41:05;25.79;;;25.79;;
71174;SDS011;58876;51.994;4.472;2024-02-16T01:43:32;17.52;;;17.52;;
71174;SDS011;58876;51.994;4.472;2024-02-16T01:45:58;27.01;;;27.01;;
71174;SDS011;58876;51.994;4.472;2024-02-16T01:48:24;34.82;;;34.82;;
71174;SDS011;58876;51.994;4.472;2024-02-16T01:50:51;34.57;;;34.57;;
71174;SDS011;58876;51.994;4.472;2024-02-16T01:53:18;31.78;;;31.78;;
71174;SDS011;58876;51.994;4.472;2024-02-16T01:55:47;29.79;;;29.79;;
71174;SDS011;58876;51.994;4.472;2024-02-16T01:58:13;29.44;;;29.44;;
71174;SDS011;58876;51.994;4.472;2024-02-16T02:00:39;26.51;;;26.51;;
71174;SDS011;58876;51.994;4.472;2024-02-16T02:03:06;21.62;;;21.62;;
71174;SDS011;58876;51.994;4.472;2024-02-16T02:05:32;30.73;;;30.73;;
71174;SDS011;58876;51.994;4.472;2024-02-16T02:07:58;22.32;;;22.32;;
71174;SDS011;58876;51.994;4.472;2024-02-16T02:10:24;17.74;;;17.74;;
71174;SDS011;58876;51.994;4.472;2024-02-16T02:12:49;26.60;;;26.60;;
71174;SDS011;58876;51.994;4.472;2024-02-16T02:15:15;29.92;;;29.92;;
71174;SDS011;58876;51.994;4.472;2024-02-16T02:17:41;24.46;;;24.46;;
71174;SDS011;58876;51.994;4.472;2024-02-16T02:20:06;18.65;;;18.65;;
71174;SDS011;58876;51.994;4.472;2024-02-16T02:22:38;18.67;;;18.67;;
71174;SDS011;58876;51.994;4.472;2024-02-16T02:25:04;25.80;;;25.80;;
71174;SDS011;58876;51.994;4.472;2024-02-16T02:27:30;17.58;;;17.58;;
71174;SDS011;58876;51.994;4.472;2024-02-16T02:29:56;18.11;;;18.11;;
71174;SDS011;58876;51.994;4.472;2024-02-16T02:32:23;17.74;;;17.74;;
71174;SDS011;58876;51.994;4.472;2024-02-16T02:34:48;23.16;;;23.16;;
71174;SDS011;58876;51.994;4.472;2024-02-16T02:37:14;38.81;;;38.81;;
71174;SDS011;58876;51.994;4.472;2024-02-16T02:39:39;42.06;;;42.06;;
71174;SDS011;58876;51.994;4.472;2024-02-16T02:42:05;34.12;;;34.12;;
71174;SDS011;58876;51.994;4.472;2024-02-16T02:44:31;41.61;;;41.61;;
71174;SDS011;58876;51.994;4.472;2024-02-16T02:46:57;36.17;;;36.17;;
71174;SDS011;58876;51.994;4.472;2024-02-16T02:49:26;26.89;;;26.89;;
71174;SDS011;58876;51.994;4.472;2024-02-16T02:51:51;25.65;;;25.65;;
71174;SDS011;58876;51.994;4.472;2024-02-16T02:54:17;43.05;;;43.05;;
71174;SDS011;58876;51.994;4.472;2024-02-16T02:56:43;39.38;;;39.38;;
71174;SDS011;58876;51.994;4.472;2024-02-16T02:59:08;46.11;;;46.11;;
71174;SDS011;58876;51.994;4.472;2024-02-16T03:01:35;37.33;;;37.33;;
71174;SDS011;58876;51.994;4.472;2024-02-16T03:04:02;36.78;;;36.78;;
71174;SDS011;58876;51.994;4.472;2024-02-16T03:06:31;47.16;;;47.16;;
71174;SDS011;58876;51.994;4.472;2024-02-16T03:08:56;45.19;;;45.19;;
71174;SDS011;58876;51.994;4.472;2024-02-16T03:11:22;43.50;;;43.50;;
71174;SDS011;58876;51.994;4.472;2024-02-16T03:13:47;44.54;;;44.54;;
71174;SDS011;58876;51.994;4.472;2024-02-16T03:16:13;50.40;;;50.40;;
71174;SDS011;58876;51.994;4.472;2024-02-16T03:18:39;52.33;;;52.33;;
71174;SDS011;58876;51.994;4.472;2024-02-16T03:21:04;39.19;;;39.19;;
71174;SDS011;58876;51.994;4.472;2024-02-16T03:23:30;42.32;;;42.32;;
71174;SDS011;58876;51.994;4.472;2024-02-16T03:25:56;45.27;;;45.27;;
71174;SDS011;58876;51.994;4.472;2024-02-16T03:28:21;48.70;;;48.70;;
71174;SDS011;58876;51.994;4.472;2024-02-16T03:30:47;32.81;;;32.81;;
71174;SDS011;58876;51.994;4.472;2024-02-16T03:33:12;40.47;;;40.47;;
71174;SDS011;58876;51.994;4.472;2024-02-16T03:35:38;41.46;;;41.46;;
71174;SDS011;58876;51.994;4.472;2024-02-16T03:38:05;42.99;;;42.99;;
71174;SDS011;58876;51.994;4.472;2024-02-16T03:40:31;52.58;;;52.58;;
71174;SDS011;58876;51.994;4.472;2024-02-16T03:42:57;62.39;;;62.39;;
71174;SDS011;58876;51.994;4.472;2024-02-16T03:45:24;68.44;;;68.44;;
71174;SDS011;58876;51.994;4.472;2024-02-16T03:47:52;71.05;;;71.05;;
71174;SDS011;58876;51.994;4.472;2024-02-16T03:50:18;63.07;;;63.07;;
71174;SDS011;58876;51.994;4.472;2024-02-16T03:52:44;71.64;;;71.64;;
71174;SDS011;58876;51.994;4.472;2024-02-16T03:55:10;81.83;;;81.83;;
71174;SDS011;58876;51.994;4.472;2024-02-16T03:57:36;76.52;;;76.52;;
71174;SDS011;58876;51.994;4.472;2024-02-16T04:00:02;5334.97;;;3441.76;;
71174;SDS011;58876;51.994;4.472;2024-02-16T04:02:31;23.78;;;23.78;;
71174;SDS011;58876;51.994;4.472;2024-02-16T04:04:56;22.77;;;22.77;;
71174;SDS011;58876;51.994;4.472;2024-02-16T04:07:22;18807.86;;;12321.63;;
71174;SDS011;58876;51.994;4.472;2024-02-16T04:09:47;54668.02;;;30917.59;;
71174;SDS011;58876;51.994;4.472;2024-02-16T04:12:13;56220.38;;;31599.77;;
71174;SDS011;58876;51.994;4.472;2024-02-16T04:14:38;58381.06;;;32580.66;;
71174;SDS011;58876;51.994;4.472;2024-02-16T04:17:04;49465.75;;;28425.20;;
71174;SDS011;58876;51.994;4.472;2024-02-16T04:19:29;16999.93;;;11357.41;;
71174;SDS011;58876;51.994;4.472;2024-02-16T04:21:55;56772.64;;;31843.56;;
71174;SDS011;58876;51.994;4.472;2024-02-16T04:24:21;11717.42;;;8851.26;;
71174;SDS011;58876;51.994;4.472;2024-02-16T04:26:46;25075.00;;;17103.97;;
71174;SDS011;58876;51.994;4.472;2024-02-16T04:29:12;57448.39;;;32136.42;;
71174;SDS011;58876;51.994;4.472;2024-02-16T04:31:41;11390.71;;;6588.87;;
71174;SDS011;58876;51.994;4.472;2024-02-16T04:34:07;3013.54;;;2787.82;;
71174;SDS011;58876;51.994;4.472;2024-02-16T04:36:34;51016.10;;;29255.78;;
71174;SDS011;58876;51.994;4.472;2024-02-16T04:38:59;36926.09;;;22201.63;;
71174;SDS011;58876;51.994;4.472;2024-02-16T04:41:25;1096.78;;;1096.72;;
71174;SDS011;58876;51.994;4.472;2024-02-16T04:43:51;89.43;;;89.43;;
71174;SDS011;58876;51.994;4.472;2024-02-16T04:46:16;772.38;;;772.38;;
71174;SDS011;58876;51.994;4.472;2024-02-16T04:48:42;361.73;;;361.73;;
71174;SDS011;58876;51.994;4.472;2024-02-16T04:51:08;982.96;;;982.96;;
71174;SDS011;58876;51.994;4.472;2024-02-16T04:53:33;127.91;;;127.91;;
71174;SDS011;58876;51.994;4.472;2024-02-16T04:56:02;49.16;;;49.16;;
71174;SDS011;58876;51.994;4.472;2024-02-16T04:58:27;50.33;;;50.33;;
71174;SDS011;58876;51.994;4.472;2024-02-16T05:00:56;32.15;;;32.15;;
71174;SDS011;58876;51.994;4.472;2024-02-16T05:03:22;27.82;;;27.82;;
71174;SDS011;58876;51.994;4.472;2024-02-16T05:05:47;36.64;;;36.64;;
71174;SDS011;58876;51.994;4.472;2024-02-16T05:08:13;40.41;;;40.41;;
71174;SDS011;58876;51.994;4.472;2024-02-16T05:10:39;32.01;;;32.01;;
71174;SDS011;58876;51.994;4.472;2024-02-16T05:13:04;32.00;;;32.00;;
71174;SDS011;58876;51.994;4.472;2024-02-16T05:15:30;33.50;;;33.50;;
71174;SDS011;58876;51.994;4.472;2024-02-16T05:17:56;39.31;;;39.31;;
71174;SDS011;58876;51.994;4.472;2024-02-16T05:20:22;35.87;;;35.87;;
71174;SDS011;58876;51.994;4.472;2024-02-16T05:22:48;36.55;;;36.55;;
71174;SDS011;58876;51.994;4.472;2024-02-16T05:25:15;41.51;;;41.51;;
71174;SDS011;58876;51.994;4.472;2024-02-16T05:27:43;34.67;;;34.67;;
71174;SDS011;58876;51.994;4.472;2024-02-16T05:30:14;79.14;;;79.14;;
71174;SDS011;58876;51.994;4.472;2024-02-16T05:32:44;80.22;;;80.22;;
71174;SDS011;58876;51.994;4.472;2024-02-16T05:35:12;45.68;;;45.68;;
71174;SDS011;58876;51.994;4.472;2024-02-16T05:37:43;57.29;;;57.29;;
71174;SDS011;58876;51.994;4.472;2024-02-16T05:40:10;20208.28;;;12811.37;;
71174;SDS011;58876;51.994;4.472;2024-02-16T05:42:55;46897.48;;;27454.42;;
71174;SDS011;58876;51.994;4.472;2024-02-16T05:45:23;47974.68;;;27921.07;;
71174;SDS011;58876;51.994;4.472;2024-02-16T05:47:50;43330.07;;;25837.72;;
71174;SDS011;58876;51.994;4.472;2024-02-16T05:50:16;30404.65;;;19342.35;;
71174;SDS011;58876;51.994;4.472;2024-02-16T05:52:43;181.83;;;181.62;;
71174;SDS011;58876;51.994;4.472;2024-02-16T05:55:09;27.86;;;27.86;;
71174;SDS011;58876;51.994;4.472;2024-02-16T05:57:36;24.98;;;24.98;;
71174;SDS011;58876;51.994;4.472;2024-02-16T06:00:06;62.36;;;62.36;;
71174;SDS011;58876;51.994;4.472;2024-02-16T06:02:33;4394.74;;;3791.00;;
71174;SDS011;58876;51.994;4.472;2024-02-16T06:05:02;28.43;;;28.43;;
71174;SDS011;58876;51.994;4.472;2024-02-16T06:07:32;42.63;;;42.63;;
71174;SDS011;58876;51.994;4.472;2024-02-16T06:10:03;53.96;;;53.96;;
71174;SDS011;58876;51.994;4.472;2024-02-16T06:12:32;32.21;;;32.21;;
71174;SDS011;58876;51.994;4.472;2024-02-16T06:14:58;23.85;;;23.85;;
71174;SDS011;58876;51.994;4.472;2024-02-16T06:17:24;33.87;;;33.87;;
71174;SDS011;58876;51.994;4.472;2024-02-16T06:19:49;76.85;;;76.85;;
71174;SDS011;58876;51.994;4.472;2024-02-16T06:22:15;80.50;;;80.50;;
71174;SDS011;58876;51.994;4.472;2024-02-16T06:24:40;95.96;;;95.96;;
71174;SDS011;58876;51.994;4.472;2024-02-16T06:27:06;97.32;;;97.32;;
71174;SDS011;58876;51.994;4.472;2024-02-16T06:29:33;113.59;;;113.59;;
71174;SDS011;58876;51.994;4.472;2024-02-16T06:32:00;140.97;;;140.97;;
71174;SDS011;58876;51.994;4.472;2024-02-16T06:34:27;114.49;;;114.49;;
71174;SDS011;58876;51.994;4.472;2024-02-16T06:36:52;90.17;;;90.17;;
71174;SDS011;58876;51.994;4.472;2024-02-16T06:39:18;71.50;;;71.50;;
71174;SDS011;58876;51.994;4.472;2024-02-16T06:41:46;85.48;;;85.48;;
71174;SDS011;58876;51.994;4.472;2024-02-16T06:44:12;100.03;;;100.03;;
71174;SDS011;58876;51.994;4.472;2024-02-16T06:46:39;82.32;;;82.32;;
71174;SDS011;58876;51.994;4.472;2024-02-16T06:49:05;57.57;;;57.57;;
71174;SDS011;58876;51.994;4.472;2024-02-16T06:51:31;57.90;;;57.90;;
71174;SDS011;58876;51.994;4.472;2024-02-16T06:53:56;82.25;;;82.25;;
71174;SDS011;58876;51.994;4.472;2024-02-16T06:56:22;129.29;;;129.29;;
71174;SDS011;58876;51.994;4.472;2024-02-16T06:58:50;143.87;;;143.87;;
71174;SDS011;58876;51.994;4.472;2024-02-16T07:01:16;82.23;;;82.23;;
71174;SDS011;58876;51.994;4.472;2024-02-16T07:03:51;62.81;;;62.81;;
71174;SDS011;58876;51.994;4.472;2024-02-16T07:06:16;58.04;;;58.04;;
71174;SDS011;58876;51.994;4.472;2024-02-16T07:08:44;81.78;;;81.78;;
71174;SDS011;58876;51.994;4.472;2024-02-16T07:11:10;75.19;;;75.19;;
71174;SDS011;58876;51.994;4.472;2024-02-16T07:13:39;58.36;;;58.36;;
71174;SDS011;58876;51.994;4.472;2024-02-16T07:16:05;54.78;;;54.78;;
71174;SDS011;58876;51.994;4.472;2024-02-16T07:18:34;65.50;;;65.50;;
71174;SDS011;58876;51.994;4.472;2024-02-16T07:21:01;70.47;;;70.47;;
71174;SDS011;58876;51.994;4.472;2024-02-16T07:23:27;92.02;;;92.02;;
71174;SDS011;58876;51.994;4.472;2024-02-16T07:25:53;138.96;;;138.96;;
71174;SDS011;58876;51.994;4.472;2024-02-16T07:28:23;142.40;;;142.40;;
71174;SDS011;58876;51.994;4.472;2024-02-16T07:30:49;105.66;;;105.66;;
71174;SDS011;58876;51.994;4.472;2024-02-16T07:33:16;124.68;;;124.68;;
71174;SDS011;58876;51.994;4.472;2024-02-16T07:35:42;146.65;;;146.65;;
71174;SDS011;58876;51.994;4.472;2024-02-16T07:38:10;143.46;;;143.46;;
71174;SDS011;58876;51.994;4.472;2024-02-16T07:40:36;122.37;;;122.37;;
71174;SDS011;58876;51.994;4.472;2024-02-16T07:43:01;148.48;;;148.48;;
71174;SDS011;58876;51.994;4.472;2024-02-16T07:45:28;107.69;;;107.69;;
71174;SDS011;58876;51.994;4.472;2024-02-16T07:47:53;103.34;;;103.34;;
71174;SDS011;58876;51.994;4.472;2024-02-16T07:50:22;107.25;;;107.25;;
71174;SDS011;58876;51.994;4.472;2024-02-16T07:52:51;149.14;;;149.14;;
71174;SDS011;58876;51.994;4.472;2024-02-16T07:55:17;119.55;;;119.55;;
71174;SDS011;58876;51.994;4.472;2024-02-16T07:57:43;112.68;;;112.68;;
71174;SDS011;58876;51.994;4.472;2024-02-16T08:00:10;530.63;;;530.63;;
71174;SDS011;58876;51.994;4.472;2024-02-16T08:02:36;301.10;;;301.10;;
71174;SDS011;58876;51.994;4.472;2024-02-16T08:05:02;160.89;;;160.89;;
71174;SDS011;58876;51.994;4.472;2024-02-16T08:07:31;120.14;;;120.14;;
71174;SDS011;58876;51.994;4.472;2024-02-16T08:09:56;109.55;;;109.55;;
71174;SDS011;58876;51.994;4.472;2024-02-16T08:12:22;98.45;;;98.45;;
71174;SDS011;58876;51.994;4.472;2024-02-16T08:14:50;73.21;;;73.21;;
71174;SDS011;58876;51.994;4.472;2024-02-16T08:17:16;54.63;;;54.63;;
71174;SDS011;58876;51.994;4.472;2024-02-16T08:19:41;63.71;;;63.71;;
71174;SDS011;58876;51.994;4.472;2024-02-16T08:22:08;36.16;;;36.16;;
71174;SDS011;58876;51.994;4.472;2024-02-16T08:24:37;60.05;;;60.05;;
71174;SDS011;58876;51.994;4.472;2024-02-16T08:27:03;106.21;;;106.21;;
71174;SDS011;58876;51.994;4.472;2024-02-16T08:29:29;72.10;;;72.10;;
71174;SDS011;58876;51.994;4.472;2024-02-16T08:32:02;99.96;;;99.96;;
71174;SDS011;58876;51.994;4.472;2024-02-16T08:34:29;118.31;;;118.31;;
71174;SDS011;58876;51.994;4.472;2024-02-16T08:36:54;237.00;;;237.00;;
71174;SDS011;58876;51.994;4.472;2024-02-16T08:39:20;130.23;;;130.23;;
71174;SDS011;58876;51.994;4.472;2024-02-16T08:41:45;50.48;;;50.48;;
71174;SDS011;58876;51.994;4.472;2024-02-16T08:44:14;353.17;;;353.17;;
71174;SDS011;58876;51.994;4.472;2024-02-16T08:46:39;116.56;;;116.56;;
71174;SDS011;58876;51.994;4.472;2024-02-16T08:49:05;3766.99;;;3747.56;;
71174;SDS011;58876;51.994;4.472;2024-02-16T08:51:31;5648.50;;;5644.50;;
71174;SDS011;58876;51.994;4.472;2024-02-16T08:53:57;3801.80;;;3801.80;;
71174;SDS011;58876;51.994;4.472;2024-02-16T08:56:23;322.71;;;322.71;;
71174;SDS011;58876;51.994;4.472;2024-02-16T08:58:49;421.87;;;421.87;;
71174;SDS011;58876;51.994;4.472;2024-02-16T09:01:14;241.94;;;241.94;;
71174;SDS011;58876;51.994;4.472;2024-02-16T09:03:41;488.34;;;488.34;;
71174;SDS011;58876;51.994;4.472;2024-02-16T09:06:07;1599.02;;;1599.02;;
71174;SDS011;58876;51.994;4.472;2024-02-16T09:08:33;3664.29;;;3664.29;;
71174;SDS011;58876;51.994;4.472;2024-02-16T09:11:03;2170.09;;;2170.09;;
71174;SDS011;58876;51.994;4.472;2024-02-16T09:13:32;549.27;;;549.27;;
71174;SDS011;58876;51.994;4.472;2024-02-16T09:15:58;2063.78;;;2063.78;;
71174;SDS011;58876;51.994;4.472;2024-02-16T09:18:23;1313.77;;;1313.77;;
71174;SDS011;58876;51.994;4.472;2024-02-16T09:20:49;1729.32;;;1729.32;;
71174;SDS011;58876;51.994;4.472;2024-02-16T09:23:14;1861.32;;;1861.32;;
71174;SDS011;58876;51.994;4.472;2024-02-16T09:25:40;1028.85;;;1028.85;;
71174;SDS011;58876;51.994;4.472;2024-02-16T09:28:06;3733.79;;;3733.79;;
71174;SDS011;58876;51.994;4.472;2024-02-16T09:30:32;4471.66;;;4470.33;;
71174;SDS011;58876;51.994;4.472;2024-02-16T09:32:58;1320.20;;;1320.20;;
71174;SDS011;58876;51.994;4.472;2024-02-16T09:35:23;2710.43;;;2710.43;;
71174;SDS011;58876;51.994;4.472;2024-02-16T09:37:49;2675.71;;;2675.71;;
71174;SDS011;58876;51.994;4.472;2024-02-16T09:40:14;2705.32;;;2705.32;;
71174;SDS011;58876;51.994;4.472;2024-02-16T09:42:40;3042.45;;;3042.45;;
71174;SDS011;58876;51.994;4.472;2024-02-16T09:45:06;2857.36;;;2857.36;;
71174;SDS011;58876;51.994;4.472;2024-02-16T09:47:32;2437.94;;;2437.94;;
71174;SDS011;58876;51.994;4.472;2024-02-16T09:50:02;1127.14;;;1127.14;;
71174;SDS011;58876;51.994;4.472;2024-02-16T09:52:27;1500.01;;;1500.01;;
71174;SDS011;58876;51.994;4.472;2024-02-16T09:54:53;1099.81;;;1099.81;;
71174;SDS011;58876;51.994;4.472;2024-02-16T09:57:19;1020.98;;;1020.98;;
71174;SDS011;58876;51.994;4.472;2024-02-16T09:59:44;1177.37;;;1177.37;;
71174;SDS011;58876;51.994;4.472;2024-02-16T10:02:10;229.15;;;229.15;;
71174;SDS011;58876;51.994;4.472;2024-02-16T10:04:36;2317.77;;;2317.77;;
71174;SDS011;58876;51.994;4.472;2024-02-16T10:07:01;681.92;;;681.92;;
71174;SDS011;58876;51.994;4.472;2024-02-16T10:09:28;559.81;;;559.81;;
71174;SDS011;58876;51.994;4.472;2024-02-16T10:11:54;961.29;;;961.29;;
71174;SDS011;58876;51.994;4.472;2024-02-16T10:14:20;860.49;;;860.49;;
71174;SDS011;58876;51.994;4.472;2024-02-16T10:16:58;1066.85;;;1066.85;;
71174;SDS011;58876;51.994;4.472;2024-02-16T10:19:29;870.91;;;870.91;;
71174;SDS011;58876;51.994;4.472;2024-02-16T10:22:10;256.85;;;256.85;;
71174;SDS011;58876;51.994;4.472;2024-02-16T10:24:37;842.58;;;842.58;;
71174;SDS011;58876;51.994;4.472;2024-02-16T10:27:16;954.98;;;954.98;;
71174;SDS011;58876;51.994;4.472;2024-02-16T10:29:43;1216.59;;;1216.59;;
71174;SDS011;58876;51.994;4.472;2024-02-16T10:32:14;605.12;;;605.12;;
71174;SDS011;58876;51.994;4.472;2024-02-16T10:34:40;241.12;;;241.12;;
71174;SDS011;58876;51.994;4.472;2024-02-16T10:37:06;225.08;;;225.08;;
71174;SDS011;58876;51.994;4.472;2024-02-16T10:39:34;471.30;;;471.30;;
71174;SDS011;58876;51.994;4.472;2024-02-16T10:42:01;427.72;;;427.72;;
71174;SDS011;58876;51.994;4.472;2024-02-16T10:44:33;589.43;;;589.43;;
71174;SDS011;58876;51.994;4.472;2024-02-16T10:47:00;580.98;;;580.98;;
71174;SDS011;58876;51.994;4.472;2024-02-16T10:49:26;253.37;;;253.37;;
71174;SDS011;58876;51.994;4.472;2024-02-16T10:51:53;577.44;;;577.44;;
71174;SDS011;58876;51.994;4.472;2024-02-16T10:54:22;727.31;;;727.31;;
71174;SDS011;58876;51.994;4.472;2024-02-16T10:56:53;587.01;;;587.01;;
71174;SDS011;58876;51.994;4.472;2024-02-16T10:59:19;484.23;;;484.23;;
71174;SDS011;58876;51.994;4.472;2024-02-16T11:02:03;718.56;;;718.56;;
71174;SDS011;58876;51.994;4.472;2024-02-16T11:04:38;658.54;;;658.54;;
71174;SDS011;58876;51.994;4.472;2024-02-16T11:07:37;38.08;;;38.08;;
71174;SDS011;58876;51.994;4.472;2024-02-16T11:09:56;34.14;;;34.14;;
71174;SDS011;58876;51.994;4.472;2024-02-16T11:12:32;36.18;;;36.18;;
71174;SDS011;58876;51.994;4.472;2024-02-16T11:15:00;24.71;;;24.71;;
71174;SDS011;58876;51.994;4.472;2024-02-16T11:17:25;18.27;;;18.27;;
71174;SDS011;58876;51.994;4.472;2024-02-16T11:19:54;152.11;;;152.11;;
71174;SDS011;58876;51.994;4.472;2024-02-16T11:22:22;168.94;;;168.94;;
71174;SDS011;58876;51.994;4.472;2024-02-16T11:24:53;97.85;;;97.85;;
71174;SDS011;58876;51.994;4.472;2024-02-16T11:27:20;130.95;;;130.95;;
71174;SDS011;58876;51.994;4.472;2024-02-16T11:29:46;138.42;;;138.42;;
71174;SDS011;58876;51.994;4.472;2024-02-16T11:32:13;70.25;;;70.25;;
71174;SDS011;58876;51.994;4.472;2024-02-16T11:34:38;113.36;;;113.36;;
71174;SDS011;58876;51.994;4.472;2024-02-16T11:37:04;80.03;;;80.03;;
71174;SDS011;58876;51.994;4.472;2024-02-16T11:39:30;147.14;;;147.14;;
71174;SDS011;58876;51.994;4.472;2024-02-16T11:42:03;947.32;;;947.32;;
71174;SDS011;58876;51.994;4.472;2024-02-16T11:44:32;982.18;;;982.18;;
71174;SDS011;58876;51.994;4.472;2024-02-16T11:47:02;1151.19;;;1151.19;;
71174;SDS011;58876;51.994;4.472;2024-02-16T11:49:35;659.35;;;659.35;;
71174;SDS011;58876;51.994;4.472;2024-02-16T11:52:03;67.38;;;67.38;;
71174;SDS011;58876;51.994;4.472;2024-02-16T11:54:32;54.06;;;54.06;;
71174;SDS011;58876;51.994;4.472;2024-02-16T11:56:58;97.04;;;97.04;;
71174;SDS011;58876;51.994;4.472;2024-02-16T11:59:24;923.19;;;923.19;;
71174;SDS011;58876;51.994;4.472;2024-02-16T12:01:54;960.19;;;960.19;;
71174;SDS011;58876;51.994;4.472;2024-02-16T12:04:25;730.72;;;730.72;;
71174;SDS011;58876;51.994;4.472;2024-02-16T12:06:52;556.97;;;556.97;;
71174;SDS011;58876;51.994;4.472;2024-02-16T12:09:21;701.72;;;701.72;;
71174;SDS011;58876;51.994;4.472;2024-02-16T12:11:47;2011.24;;;2002.16;;
71174;SDS011;58876;51.994;4.472;2024-02-16T12:14:15;239.80;;;239.80;;
71174;SDS011;58876;51.994;4.472;2024-02-16T12:16:41;376.55;;;376.55;;
71174;SDS011;58876;51.994;4.472;2024-02-16T12:19:07;290.20;;;290.20;;
71174;SDS011;58876;51.994;4.472;2024-02-16T12:21:36;579.58;;;579.58;;
71174;SDS011;58876;51.994;4.472;2024-02-16T12:24:03;214.89;;;214.89;;
71174;SDS011;58876;51.994;4.472;2024-02-16T12:26:32;6112.87;;;5859.18;;
71174;SDS011;58876;51.994;4.472;2024-02-16T12:28:57;185.40;;;185.40;;
71174;SDS011;58876;51.994;4.472;2024-02-16T12:31:25;1506.51;;;1469.34;;
71174;SDS011;58876;51.994;4.472;2024-02-16T12:33:51;7705.65;;;6933.17;;
71174;SDS011;58876;51.994;4.472;2024-02-16T12:36:17;1414.36;;;1414.36;;
71174;SDS011;58876;51.994;4.472;2024-02-16T12:38:43;1017.14;;;1017.14;;
71174;SDS011;58876;51.994;4.472;2024-02-16T12:41:08;1571.22;;;1571.22;;
71174;SDS011;58876;51.994;4.472;2024-02-16T12:43:34;4386.07;;;4368.43;;
71174;SDS011;58876;51.994;4.472;2024-02-16T12:46:00;3162.14;;;3116.69;;
71174;SDS011;58876;51.994;4.472;2024-02-16T12:48:27;1833.93;;;1833.93;;
71174;SDS011;58876;51.994;4.472;2024-02-16T12:50:53;3828.62;;;3828.62;;
71174;SDS011;58876;51.994;4.472;2024-02-16T12:53:19;8184.80;;;7544.79;;
71174;SDS011;58876;51.994;4.472;2024-02-16T12:55:46;3416.90;;;3258.94;;
71174;SDS011;58876;51.994;4.472;2024-02-16T12:58:12;262.01;;;262.01;;
71174;SDS011;58876;51.994;4.472;2024-02-16T13:00:38;293.83;;;293.83;;
71174;SDS011;58876;51.994;4.472;2024-02-16T13:03:04;333.39;;;333.39;;
71174;SDS011;58876;51.994;4.472;2024-02-16T13:05:32;245.09;;;245.09;;
71174;SDS011;58876;51.994;4.472;2024-02-16T13:07:58;212.89;;;212.89;;
71174;SDS011;58876;51.994;4.472;2024-02-16T13:10:23;273.08;;;273.08;;
71174;SDS011;58876;51.994;4.472;2024-02-16T13:12:49;223.01;;;223.01;;
71174;SDS011;58876;51.994;4.472;2024-02-16T13:15:14;298.11;;;298.11;;
71174;SDS011;58876;51.994;4.472;2024-02-16T13:17:40;137.18;;;137.18;;
71174;SDS011;58876;51.994;4.472;2024-02-16T13:20:05;64.29;;;64.29;;
71174;SDS011;58876;51.994;4.472;2024-02-16T13:22:33;86.58;;;86.58;;
71174;SDS011;58876;51.994;4.472;2024-02-16T13:24:59;78.76;;;78.76;;
71174;SDS011;58876;51.994;4.472;2024-02-16T13:27:27;161.09;;;161.09;;
71174;SDS011;58876;51.994;4.472;2024-02-16T13:29:53;136.06;;;136.06;;
71174;SDS011;58876;51.994;4.472;2024-02-16T13:32:18;177.72;;;177.72;;
71174;SDS011;58876;51.994;4.472;2024-02-16T13:34:44;140.80;;;140.80;;
71174;SDS011;58876;51.994;4.472;2024-02-16T13:37:10;24.18;;;24.18;;
71174;SDS011;58876;51.994;4.472;2024-02-16T13:39:35;21.93;;;21.93;;
71174;SDS011;58876;51.994;4.472;2024-02-16T13:42:01;71.06;;;71.06;;
71174;SDS011;58876;51.994;4.472;2024-02-16T13:44:26;391.72;;;379.39;;
71174;SDS011;58876;51.994;4.472;2024-02-16T13:46:52;450.31;;;450.31;;
71174;SDS011;58876;51.994;4.472;2024-02-16T13:49:18;147.26;;;147.20;;
71174;SDS011;58876;51.994;4.472;2024-02-16T13:51:43;256.75;;;255.24;;
71174;SDS011;58876;51.994;4.472;2024-02-16T13:54:10;73.37;;;73.37;;
71174;SDS011;58876;51.994;4.472;2024-02-16T13:56:36;32.03;;;32.03;;
71174;SDS011;58876;51.994;4.472;2024-02-16T13:59:03;34.09;;;34.09;;
71174;SDS011;58876;51.994;4.472;2024-02-16T14:01:35;35.08;;;35.08;;